sensor_id;sensor_type;location;lat;lon;timestamp;P1;durP1;ratioP1;P2;durP2;ratioP2
3849;SDS011;1940;51.052;13.678;2024-02-28T00:01:58;50.00;;;21.80;;
3849;SDS011;1940;51.052;13.678;2024-02-28T00:04:24;56.60;;;21.40;;
3849;SDS011;1940;51.052;13.678;2024-02-28T00:06:49;52.50;;;17.77;;
3849;SDS011;1940;51.052;13.678;2024-02-28T00:09:15;49.33;;;20.33;;
3849;SDS011;1940;51.052;13.678;2024-02-28T00:11:44;54.17;;;20.13;;
3849;SDS011;1940;51.052;13.678;2024-02-28T00:14:11;59.93;;;22.00;;
3849;SDS011;1940;51.052;13.678;2024-02-28T00:16:39;45.67;;;19.60;;
3849;SDS011;1940;51.052;13.678;2024-02-28T00:19:05;49.70;;;19.70;;
3849;SDS011;1940;51.052;13.678;2024-02-28T00:21:30;49.27;;;20.63;;
3849;SDS011;1940;51.052;13.678;2024-02-28T00:23:56;48.57;;;18.77;;
3849;SDS011;1940;51.052;13.678;2024-02-28T00:26:21;51.50;;;19.83;;
3849;SDS011;1940;51.052;13.678;2024-02-28T00:28:47;48.77;;;19.90;;
3849;SDS011;1940;51.052;13.678;2024-02-28T00:31:12;47.83;;;19.53;;
3849;SDS011;1940;51.052;13.678;2024-02-28T00:33:38;49.37;;;20.13;;
3849;SDS011;1940;51.052;13.678;2024-02-28T00:36:03;49.00;;;19.70;;
3849;SDS011;1940;51.052;13.678;2024-02-28T00:38:29;45.10;;;18.60;;
3849;SDS011;1940;51.052;13.678;2024-02-28T00:40:54;44.93;;;18.30;;
3849;SDS011;1940;51.052;13.678;2024-02-28T00:43:20;39.93;;;17.90;;
3849;SDS011;1940;51.052;13.678;2024-02-28T00:45:45;40.10;;;17.40;;
3849;SDS011;1940;51.052;13.678;2024-02-28T00:48:11;45.17;;;19.20;;
3849;SDS011;1940;51.052;13.678;2024-02-28T00:50:36;49.23;;;19.00;;
3849;SDS011;1940;51.052;13.678;2024-02-28T00:53:02;39.47;;;18.10;;
3849;SDS011;1940;51.052;13.678;2024-02-28T00:55:27;36.40;;;15.87;;
3849;SDS011;1940;51.052;13.678;2024-02-28T00:57:53;41.50;;;16.80;;
3849;SDS011;1940;51.052;13.678;2024-02-28T01:00:18;45.07;;;17.20;;
3849;SDS011;1940;51.052;13.678;2024-02-28T01:02:44;39.50;;;16.40;;
3849;SDS011;1940;51.052;13.678;2024-02-28T01:05:10;36.30;;;15.03;;
3849;SDS011;1940;51.052;13.678;2024-02-28T01:07:35;35.57;;;15.60;;
3849;SDS011;1940;51.052;13.678;2024-02-28T01:10:01;37.57;;;16.60;;
3849;SDS011;1940;51.052;13.678;2024-02-28T01:12:27;39.50;;;15.90;;
3849;SDS011;1940;51.052;13.678;2024-02-28T01:14:53;37.13;;;15.40;;
3849;SDS011;1940;51.052;13.678;2024-02-28T01:17:18;42.00;;;16.10;;
3849;SDS011;1940;51.052;13.678;2024-02-28T01:19:44;40.27;;;16.83;;
3849;SDS011;1940;51.052;13.678;2024-02-28T01:22:09;43.23;;;17.50;;
3849;SDS011;1940;51.052;13.678;2024-02-28T01:24:35;43.13;;;18.07;;
3849;SDS011;1940;51.052;13.678;2024-02-28T01:27:01;42.33;;;16.53;;
3849;SDS011;1940;51.052;13.678;2024-02-28T01:29:27;41.37;;;15.13;;
3849;SDS011;1940;51.052;13.678;2024-02-28T01:31:53;46.47;;;18.03;;
3849;SDS011;1940;51.052;13.678;2024-02-28T01:34:19;45.97;;;16.83;;
3849;SDS011;1940;51.052;13.678;2024-02-28T01:36:44;56.33;;;18.80;;
3849;SDS011;1940;51.052;13.678;2024-02-28T01:39:10;47.07;;;16.57;;
3849;SDS011;1940;51.052;13.678;2024-02-28T01:41:35;46.70;;;18.70;;
3849;SDS011;1940;51.052;13.678;2024-02-28T01:44:01;45.67;;;17.80;;
3849;SDS011;1940;51.052;13.678;2024-02-28T01:46:27;56.20;;;18.90;;
3849;SDS011;1940;51.052;13.678;2024-02-28T01:48:54;53.80;;;19.13;;
3849;SDS011;1940;51.052;13.678;2024-02-28T01:51:21;49.70;;;17.53;;
3849;SDS011;1940;51.052;13.678;2024-02-28T01:53:49;47.27;;;17.60;;
3849;SDS011;1940;51.052;13.678;2024-02-28T01:56:17;54.90;;;18.90;;
3849;SDS011;1940;51.052;13.678;2024-02-28T01:58:47;58.73;;;20.27;;
3849;SDS011;1940;51.052;13.678;2024-02-28T02:01:14;54.33;;;19.87;;
3849;SDS011;1940;51.052;13.678;2024-02-28T02:03:40;57.67;;;18.97;;
3849;SDS011;1940;51.052;13.678;2024-02-28T02:06:07;51.07;;;19.27;;
3849;SDS011;1940;51.052;13.678;2024-02-28T02:08:33;49.37;;;18.90;;
3849;SDS011;1940;51.052;13.678;2024-02-28T02:10:59;52.53;;;19.00;;
3849;SDS011;1940;51.052;13.678;2024-02-28T02:13:24;52.53;;;18.60;;
3849;SDS011;1940;51.052;13.678;2024-02-28T02:15:50;61.50;;;20.10;;
3849;SDS011;1940;51.052;13.678;2024-02-28T02:18:15;54.80;;;18.93;;
3849;SDS011;1940;51.052;13.678;2024-02-28T02:20:43;53.37;;;18.97;;
3849;SDS011;1940;51.052;13.678;2024-02-28T02:23:11;53.03;;;18.87;;
3849;SDS011;1940;51.052;13.678;2024-02-28T02:25:47;48.97;;;18.43;;
3849;SDS011;1940;51.052;13.678;2024-02-28T02:28:13;55.90;;;18.60;;
3849;SDS011;1940;51.052;13.678;2024-02-28T02:30:39;62.03;;;20.00;;
3849;SDS011;1940;51.052;13.678;2024-02-28T02:33:06;57.63;;;19.13;;
3849;SDS011;1940;51.052;13.678;2024-02-28T02:35:33;51.87;;;18.67;;
3849;SDS011;1940;51.052;13.678;2024-02-28T02:37:59;55.63;;;18.40;;
3849;SDS011;1940;51.052;13.678;2024-02-28T02:40:25;51.83;;;18.33;;
3849;SDS011;1940;51.052;13.678;2024-02-28T02:42:51;55.57;;;20.47;;
3849;SDS011;1940;51.052;13.678;2024-02-28T02:45:16;56.50;;;19.60;;
3849;SDS011;1940;51.052;13.678;2024-02-28T02:47:42;47.07;;;18.00;;
3849;SDS011;1940;51.052;13.678;2024-02-28T02:50:09;56.43;;;20.67;;
3849;SDS011;1940;51.052;13.678;2024-02-28T02:52:35;48.63;;;19.17;;
3849;SDS011;1940;51.052;13.678;2024-02-28T02:55:01;46.33;;;17.33;;
3849;SDS011;1940;51.052;13.678;2024-02-28T02:57:27;52.93;;;18.73;;
3849;SDS011;1940;51.052;13.678;2024-02-28T02:59:52;39.97;;;15.37;;
3849;SDS011;1940;51.052;13.678;2024-02-28T03:02:18;48.97;;;17.40;;
3849;SDS011;1940;51.052;13.678;2024-02-28T03:04:43;45.37;;;17.43;;
3849;SDS011;1940;51.052;13.678;2024-02-28T03:07:09;47.00;;;17.70;;
3849;SDS011;1940;51.052;13.678;2024-02-28T03:09:34;48.70;;;16.90;;
3849;SDS011;1940;51.052;13.678;2024-02-28T03:12:00;41.53;;;16.03;;
3849;SDS011;1940;51.052;13.678;2024-02-28T03:14:26;48.50;;;18.27;;
3849;SDS011;1940;51.052;13.678;2024-02-28T03:16:52;45.30;;;17.10;;
3849;SDS011;1940;51.052;13.678;2024-02-28T03:19:18;41.17;;;17.40;;
3849;SDS011;1940;51.052;13.678;2024-02-28T03:21:44;45.43;;;16.60;;
3849;SDS011;1940;51.052;13.678;2024-02-28T03:24:09;45.47;;;17.50;;
3849;SDS011;1940;51.052;13.678;2024-02-28T03:26:35;55.30;;;18.13;;
3849;SDS011;1940;51.052;13.678;2024-02-28T03:29:00;45.37;;;16.10;;
3849;SDS011;1940;51.052;13.678;2024-02-28T03:31:26;43.60;;;16.13;;
3849;SDS011;1940;51.052;13.678;2024-02-28T03:33:52;59.70;;;19.17;;
3849;SDS011;1940;51.052;13.678;2024-02-28T03:36:17;46.47;;;16.93;;
3849;SDS011;1940;51.052;13.678;2024-02-28T03:38:43;55.17;;;19.00;;
3849;SDS011;1940;51.052;13.678;2024-02-28T03:41:08;54.40;;;18.47;;
3849;SDS011;1940;51.052;13.678;2024-02-28T03:43:34;44.63;;;16.57;;
3849;SDS011;1940;51.052;13.678;2024-02-28T03:46:00;45.63;;;18.07;;
3849;SDS011;1940;51.052;13.678;2024-02-28T03:48:25;58.13;;;18.10;;
3849;SDS011;1940;51.052;13.678;2024-02-28T03:50:51;51.07;;;16.50;;
3849;SDS011;1940;51.052;13.678;2024-02-28T03:53:16;42.37;;;15.80;;
3849;SDS011;1940;51.052;13.678;2024-02-28T03:55:42;45.80;;;16.07;;
3849;SDS011;1940;51.052;13.678;2024-02-28T03:58:09;40.93;;;15.80;;
3849;SDS011;1940;51.052;13.678;2024-02-28T04:00:35;45.57;;;15.23;;
3849;SDS011;1940;51.052;13.678;2024-02-28T04:03:01;40.87;;;16.60;;
3849;SDS011;1940;51.052;13.678;2024-02-28T04:05:27;46.20;;;16.13;;
3849;SDS011;1940;51.052;13.678;2024-02-28T04:07:53;45.77;;;15.10;;
3849;SDS011;1940;51.052;13.678;2024-02-28T04:10:18;44.40;;;16.03;;
3849;SDS011;1940;51.052;13.678;2024-02-28T04:12:44;45.03;;;15.83;;
3849;SDS011;1940;51.052;13.678;2024-02-28T04:15:12;39.67;;;13.60;;
3849;SDS011;1940;51.052;13.678;2024-02-28T04:17:38;38.97;;;12.93;;
3849;SDS011;1940;51.052;13.678;2024-02-28T04:20:08;42.17;;;14.17;;
3849;SDS011;1940;51.052;13.678;2024-02-28T04:22:37;43.77;;;14.60;;
3849;SDS011;1940;51.052;13.678;2024-02-28T04:25:07;42.07;;;13.20;;
3849;SDS011;1940;51.052;13.678;2024-02-28T04:27:34;40.97;;;12.67;;
3849;SDS011;1940;51.052;13.678;2024-02-28T04:30:00;42.33;;;13.70;;
3849;SDS011;1940;51.052;13.678;2024-02-28T04:32:25;39.43;;;13.63;;
3849;SDS011;1940;51.052;13.678;2024-02-28T04:34:51;42.63;;;13.10;;
3849;SDS011;1940;51.052;13.678;2024-02-28T04:37:16;45.00;;;13.33;;
3849;SDS011;1940;51.052;13.678;2024-02-28T04:39:42;29.43;;;11.73;;
3849;SDS011;1940;51.052;13.678;2024-02-28T04:42:07;42.80;;;13.43;;
3849;SDS011;1940;51.052;13.678;2024-02-28T04:44:33;49.27;;;14.20;;
3849;SDS011;1940;51.052;13.678;2024-02-28T04:46:58;44.20;;;13.80;;
3849;SDS011;1940;51.052;13.678;2024-02-28T04:49:24;51.43;;;14.40;;
3849;SDS011;1940;51.052;13.678;2024-02-28T04:51:49;41.73;;;13.90;;
3849;SDS011;1940;51.052;13.678;2024-02-28T04:54:15;39.63;;;14.03;;
3849;SDS011;1940;51.052;13.678;2024-02-28T04:56:41;41.53;;;14.30;;
3849;SDS011;1940;51.052;13.678;2024-02-28T04:59:07;40.67;;;12.93;;
3849;SDS011;1940;51.052;13.678;2024-02-28T05:01:33;42.63;;;15.13;;
3849;SDS011;1940;51.052;13.678;2024-02-28T05:04:00;38.20;;;14.33;;
3849;SDS011;1940;51.052;13.678;2024-02-28T05:06:25;47.33;;;15.40;;
3849;SDS011;1940;51.052;13.678;2024-02-28T05:08:51;41.70;;;13.33;;
3849;SDS011;1940;51.052;13.678;2024-02-28T05:11:16;35.37;;;12.47;;
3849;SDS011;1940;51.052;13.678;2024-02-28T05:13:42;37.80;;;12.93;;
3849;SDS011;1940;51.052;13.678;2024-02-28T05:16:13;35.33;;;12.03;;
3849;SDS011;1940;51.052;13.678;2024-02-28T05:18:39;36.00;;;13.07;;
3849;SDS011;1940;51.052;13.678;2024-02-28T05:21:05;39.70;;;13.93;;
3849;SDS011;1940;51.052;13.678;2024-02-28T05:23:30;31.90;;;10.90;;
3849;SDS011;1940;51.052;13.678;2024-02-28T05:25:56;32.57;;;11.73;;
3849;SDS011;1940;51.052;13.678;2024-02-28T05:28:22;32.53;;;11.90;;
3849;SDS011;1940;51.052;13.678;2024-02-28T05:30:48;29.30;;;12.50;;
3849;SDS011;1940;51.052;13.678;2024-02-28T05:33:14;36.97;;;13.40;;
3849;SDS011;1940;51.052;13.678;2024-02-28T05:35:40;32.10;;;12.47;;
3849;SDS011;1940;51.052;13.678;2024-02-28T05:38:05;40.20;;;12.57;;
3849;SDS011;1940;51.052;13.678;2024-02-28T05:40:31;36.67;;;12.30;;
3849;SDS011;1940;51.052;13.678;2024-02-28T05:42:56;42.90;;;12.47;;
3849;SDS011;1940;51.052;13.678;2024-02-28T05:45:22;44.13;;;14.00;;
3849;SDS011;1940;51.052;13.678;2024-02-28T05:47:47;40.53;;;12.37;;
3849;SDS011;1940;51.052;13.678;2024-02-28T05:50:13;39.23;;;12.67;;
3849;SDS011;1940;51.052;13.678;2024-02-28T05:52:41;40.50;;;13.93;;
3849;SDS011;1940;51.052;13.678;2024-02-28T05:55:07;37.60;;;13.60;;
3849;SDS011;1940;51.052;13.678;2024-02-28T05:57:33;46.67;;;13.30;;
3849;SDS011;1940;51.052;13.678;2024-02-28T05:59:59;32.10;;;11.80;;
3849;SDS011;1940;51.052;13.678;2024-02-28T06:02:24;37.90;;;12.60;;
3849;SDS011;1940;51.052;13.678;2024-02-28T06:04:50;39.17;;;13.63;;
3849;SDS011;1940;51.052;13.678;2024-02-28T06:07:15;45.63;;;14.33;;
3849;SDS011;1940;51.052;13.678;2024-02-28T06:09:41;33.23;;;13.70;;
3849;SDS011;1940;51.052;13.678;2024-02-28T06:12:06;30.33;;;12.20;;
3849;SDS011;1940;51.052;13.678;2024-02-28T06:14:32;30.53;;;12.10;;
3849;SDS011;1940;51.052;13.678;2024-02-28T06:16:57;41.80;;;13.30;;
3849;SDS011;1940;51.052;13.678;2024-02-28T06:19:23;43.83;;;13.20;;
3849;SDS011;1940;51.052;13.678;2024-02-28T06:21:48;38.90;;;12.90;;
3849;SDS011;1940;51.052;13.678;2024-02-28T06:24:14;31.57;;;13.13;;
3849;SDS011;1940;51.052;13.678;2024-02-28T06:26:40;35.47;;;12.80;;
3849;SDS011;1940;51.052;13.678;2024-02-28T06:29:07;36.07;;;12.90;;
3849;SDS011;1940;51.052;13.678;2024-02-28T06:31:32;36.73;;;13.27;;
3849;SDS011;1940;51.052;13.678;2024-02-28T06:33:58;31.37;;;13.20;;
3849;SDS011;1940;51.052;13.678;2024-02-28T06:36:24;37.60;;;13.43;;
3849;SDS011;1940;51.052;13.678;2024-02-28T06:38:49;36.63;;;14.40;;
3849;SDS011;1940;51.052;13.678;2024-02-28T06:41:15;35.53;;;11.90;;
3849;SDS011;1940;51.052;13.678;2024-02-28T06:43:41;38.50;;;12.80;;
3849;SDS011;1940;51.052;13.678;2024-02-28T06:46:07;45.07;;;13.70;;
3849;SDS011;1940;51.052;13.678;2024-02-28T06:48:32;42.07;;;13.90;;
3849;SDS011;1940;51.052;13.678;2024-02-28T06:50:58;41.80;;;13.63;;
3849;SDS011;1940;51.052;13.678;2024-02-28T06:53:23;40.10;;;14.10;;
3849;SDS011;1940;51.052;13.678;2024-02-28T06:55:50;32.23;;;12.23;;
3849;SDS011;1940;51.052;13.678;2024-02-28T06:58:15;41.00;;;14.07;;
3849;SDS011;1940;51.052;13.678;2024-02-28T07:00:41;41.23;;;13.30;;
3849;SDS011;1940;51.052;13.678;2024-02-28T07:03:06;38.97;;;14.20;;
3849;SDS011;1940;51.052;13.678;2024-02-28T07:05:32;33.17;;;12.50;;
3849;SDS011;1940;51.052;13.678;2024-02-28T07:07:58;39.43;;;12.70;;
3849;SDS011;1940;51.052;13.678;2024-02-28T07:10:24;29.83;;;11.87;;
3849;SDS011;1940;51.052;13.678;2024-02-28T07:12:50;29.63;;;11.17;;
3849;SDS011;1940;51.052;13.678;2024-02-28T07:15:15;35.77;;;11.70;;
3849;SDS011;1940;51.052;13.678;2024-02-28T07:17:44;28.60;;;11.50;;
3849;SDS011;1940;51.052;13.678;2024-02-28T07:20:10;32.27;;;12.33;;
3849;SDS011;1940;51.052;13.678;2024-02-28T07:22:36;39.50;;;12.80;;
3849;SDS011;1940;51.052;13.678;2024-02-28T07:25:01;37.57;;;11.97;;
3849;SDS011;1940;51.052;13.678;2024-02-28T07:27:27;32.43;;;11.90;;
3849;SDS011;1940;51.052;13.678;2024-02-28T07:29:53;32.80;;;11.97;;
3849;SDS011;1940;51.052;13.678;2024-02-28T07:32:18;37.50;;;13.03;;
3849;SDS011;1940;51.052;13.678;2024-02-28T07:34:43;35.47;;;12.17;;
3849;SDS011;1940;51.052;13.678;2024-02-28T07:37:09;33.37;;;12.67;;
3849;SDS011;1940;51.052;13.678;2024-02-28T07:39:34;33.33;;;12.60;;
3849;SDS011;1940;51.052;13.678;2024-02-28T07:42:00;36.30;;;14.00;;
3849;SDS011;1940;51.052;13.678;2024-02-28T07:44:25;43.20;;;15.10;;
3849;SDS011;1940;51.052;13.678;2024-02-28T07:46:51;35.50;;;12.90;;
3849;SDS011;1940;51.052;13.678;2024-02-28T07:49:16;37.97;;;13.83;;
3849;SDS011;1940;51.052;13.678;2024-02-28T07:51:42;34.67;;;12.57;;
3849;SDS011;1940;51.052;13.678;2024-02-28T07:54:07;34.90;;;14.10;;
3849;SDS011;1940;51.052;13.678;2024-02-28T07:56:33;40.83;;;14.27;;
3849;SDS011;1940;51.052;13.678;2024-02-28T07:58:58;36.67;;;13.20;;
3849;SDS011;1940;51.052;13.678;2024-02-28T08:01:24;37.80;;;13.27;;
3849;SDS011;1940;51.052;13.678;2024-02-28T08:03:49;34.27;;;13.13;;
3849;SDS011;1940;51.052;13.678;2024-02-28T08:06:15;33.93;;;12.20;;
3849;SDS011;1940;51.052;13.678;2024-02-28T08:08:43;28.37;;;11.87;;
3849;SDS011;1940;51.052;13.678;2024-02-28T08:11:10;32.17;;;12.50;;
3849;SDS011;1940;51.052;13.678;2024-02-28T08:13:36;32.13;;;11.80;;
3849;SDS011;1940;51.052;13.678;2024-02-28T08:16:01;31.77;;;13.00;;
3849;SDS011;1940;51.052;13.678;2024-02-28T08:18:26;30.70;;;12.77;;
3849;SDS011;1940;51.052;13.678;2024-02-28T08:20:53;33.20;;;12.57;;
3849;SDS011;1940;51.052;13.678;2024-02-28T08:23:22;40.97;;;13.70;;
3849;SDS011;1940;51.052;13.678;2024-02-28T08:25:48;33.43;;;12.97;;
3849;SDS011;1940;51.052;13.678;2024-02-28T08:28:13;37.20;;;13.63;;
3849;SDS011;1940;51.052;13.678;2024-02-28T08:30:39;32.93;;;13.73;;
3849;SDS011;1940;51.052;13.678;2024-02-28T08:33:06;40.47;;;13.70;;
3849;SDS011;1940;51.052;13.678;2024-02-28T08:35:33;42.33;;;14.00;;
3849;SDS011;1940;51.052;13.678;2024-02-28T08:37:59;36.53;;;12.77;;
3849;SDS011;1940;51.052;13.678;2024-02-28T08:40:24;34.67;;;12.70;;
3849;SDS011;1940;51.052;13.678;2024-02-28T08:42:50;31.77;;;13.87;;
3849;SDS011;1940;51.052;13.678;2024-02-28T08:45:18;34.83;;;11.83;;
3849;SDS011;1940;51.052;13.678;2024-02-28T08:47:43;35.80;;;12.97;;
3849;SDS011;1940;51.052;13.678;2024-02-28T08:50:09;34.10;;;13.03;;
3849;SDS011;1940;51.052;13.678;2024-02-28T08:52:35;30.33;;;11.90;;
3849;SDS011;1940;51.052;13.678;2024-02-28T08:55:01;28.30;;;11.03;;
3849;SDS011;1940;51.052;13.678;2024-02-28T08:57:27;28.97;;;12.00;;
3849;SDS011;1940;51.052;13.678;2024-02-28T08:59:55;30.90;;;11.57;;
3849;SDS011;1940;51.052;13.678;2024-02-28T09:02:20;30.50;;;11.17;;
3849;SDS011;1940;51.052;13.678;2024-02-28T09:04:46;26.50;;;11.33;;
3849;SDS011;1940;51.052;13.678;2024-02-28T09:07:15;28.40;;;12.63;;
3849;SDS011;1940;51.052;13.678;2024-02-28T09:09:44;30.47;;;12.40;;
3849;SDS011;1940;51.052;13.678;2024-02-28T09:12:10;35.60;;;14.17;;
3849;SDS011;1940;51.052;13.678;2024-02-28T09:14:35;34.83;;;13.43;;
3849;SDS011;1940;51.052;13.678;2024-02-28T09:17:01;36.87;;;14.20;;
3849;SDS011;1940;51.052;13.678;2024-02-28T09:19:30;40.87;;;14.10;;
3849;SDS011;1940;51.052;13.678;2024-02-28T09:21:56;34.40;;;14.40;;
3849;SDS011;1940;51.052;13.678;2024-02-28T09:24:22;36.87;;;14.70;;
3849;SDS011;1940;51.052;13.678;2024-02-28T09:26:48;42.40;;;14.97;;
3849;SDS011;1940;51.052;13.678;2024-02-28T09:29:13;32.60;;;13.63;;
3849;SDS011;1940;51.052;13.678;2024-02-28T09:31:39;38.57;;;14.40;;
3849;SDS011;1940;51.052;13.678;2024-02-28T09:34:04;38.10;;;15.07;;
3849;SDS011;1940;51.052;13.678;2024-02-28T09:36:32;40.70;;;14.60;;
3849;SDS011;1940;51.052;13.678;2024-02-28T09:39:04;37.67;;;15.17;;
3849;SDS011;1940;51.052;13.678;2024-02-28T09:41:30;39.10;;;15.47;;
3849;SDS011;1940;51.052;13.678;2024-02-28T09:43:55;37.30;;;14.90;;
3849;SDS011;1940;51.052;13.678;2024-02-28T09:46:22;41.90;;;16.30;;
3849;SDS011;1940;51.052;13.678;2024-02-28T09:48:48;44.23;;;16.80;;
3849;SDS011;1940;51.052;13.678;2024-02-28T09:51:15;47.57;;;16.00;;
3849;SDS011;1940;51.052;13.678;2024-02-28T09:53:43;42.63;;;16.90;;
3849;SDS011;1940;51.052;13.678;2024-02-28T09:56:09;45.60;;;17.23;;
3849;SDS011;1940;51.052;13.678;2024-02-28T09:58:35;39.87;;;17.17;;
3849;SDS011;1940;51.052;13.678;2024-02-28T10:01:03;40.57;;;17.30;;
3849;SDS011;1940;51.052;13.678;2024-02-28T10:03:34;41.83;;;17.30;;
3849;SDS011;1940;51.052;13.678;2024-02-28T10:06:01;40.20;;;16.30;;
3849;SDS011;1940;51.052;13.678;2024-02-28T10:08:27;39.63;;;17.07;;
3849;SDS011;1940;51.052;13.678;2024-02-28T10:10:54;46.23;;;16.73;;
3849;SDS011;1940;51.052;13.678;2024-02-28T10:13:21;34.30;;;14.77;;
3849;SDS011;1940;51.052;13.678;2024-02-28T10:15:47;36.13;;;14.87;;
3849;SDS011;1940;51.052;13.678;2024-02-28T10:18:13;40.00;;;17.30;;
3849;SDS011;1940;51.052;13.678;2024-02-28T10:20:39;47.40;;;16.40;;
3849;SDS011;1940;51.052;13.678;2024-02-28T10:23:05;34.80;;;14.13;;
3849;SDS011;1940;51.052;13.678;2024-02-28T10:25:41;40.43;;;15.93;;
3849;SDS011;1940;51.052;13.678;2024-02-28T10:28:09;37.23;;;15.53;;
3849;SDS011;1940;51.052;13.678;2024-02-28T10:30:38;35.97;;;15.10;;
3849;SDS011;1940;51.052;13.678;2024-02-28T10:33:13;33.70;;;14.53;;
3849;SDS011;1940;51.052;13.678;2024-02-28T10:35:39;34.77;;;13.53;;
3849;SDS011;1940;51.052;13.678;2024-02-28T10:38:12;31.07;;;14.60;;
3849;SDS011;1940;51.052;13.678;2024-02-28T10:40:41;33.83;;;14.10;;
3849;SDS011;1940;51.052;13.678;2024-02-28T10:43:10;32.47;;;13.93;;
3849;SDS011;1940;51.052;13.678;2024-02-28T10:45:36;30.77;;;13.10;;
3849;SDS011;1940;51.052;13.678;2024-02-28T10:48:05;27.90;;;12.33;;
3849;SDS011;1940;51.052;13.678;2024-02-28T10:50:31;26.80;;;11.73;;
3849;SDS011;1940;51.052;13.678;2024-02-28T10:52:59;26.70;;;11.30;;
3849;SDS011;1940;51.052;13.678;2024-02-28T10:55:27;32.77;;;13.30;;
3849;SDS011;1940;51.052;13.678;2024-02-28T10:58:01;24.90;;;11.40;;
3849;SDS011;1940;51.052;13.678;2024-02-28T11:00:29;27.80;;;13.27;;
3849;SDS011;1940;51.052;13.678;2024-02-28T11:02:55;29.87;;;12.97;;
3849;SDS011;1940;51.052;13.678;2024-02-28T11:05:23;27.57;;;12.57;;
3849;SDS011;1940;51.052;13.678;2024-02-28T11:07:50;30.63;;;13.17;;
3849;SDS011;1940;51.052;13.678;2024-02-28T11:10:17;23.40;;;11.53;;
3849;SDS011;1940;51.052;13.678;2024-02-28T11:12:43;26.87;;;11.43;;
3849;SDS011;1940;51.052;13.678;2024-02-28T11:15:15;23.83;;;11.27;;
3849;SDS011;1940;51.052;13.678;2024-02-28T11:17:42;25.13;;;11.73;;
3849;SDS011;1940;51.052;13.678;2024-02-28T11:20:11;31.43;;;12.30;;
3849;SDS011;1940;51.052;13.678;2024-02-28T11:22:37;26.20;;;12.20;;
3849;SDS011;1940;51.052;13.678;2024-02-28T11:25:04;23.10;;;11.20;;
3849;SDS011;1940;51.052;13.678;2024-02-28T11:27:31;26.90;;;11.10;;
3849;SDS011;1940;51.052;13.678;2024-02-28T11:29:56;26.30;;;11.37;;
3849;SDS011;1940;51.052;13.678;2024-02-28T11:32:24;22.93;;;10.60;;
3849;SDS011;1940;51.052;13.678;2024-02-28T11:34:50;25.53;;;11.90;;
3849;SDS011;1940;51.052;13.678;2024-02-28T11:37:16;27.20;;;11.43;;
3849;SDS011;1940;51.052;13.678;2024-02-28T11:39:46;22.20;;;10.70;;
3849;SDS011;1940;51.052;13.678;2024-02-28T11:42:13;22.20;;;10.60;;
3849;SDS011;1940;51.052;13.678;2024-02-28T11:44:40;28.37;;;11.33;;
3849;SDS011;1940;51.052;13.678;2024-02-28T11:47:08;26.53;;;12.17;;
3849;SDS011;1940;51.052;13.678;2024-02-28T11:49:35;24.80;;;11.17;;
3849;SDS011;1940;51.052;13.678;2024-02-28T11:52:02;30.60;;;12.80;;
3849;SDS011;1940;51.052;13.678;2024-02-28T11:54:29;29.63;;;14.03;;
3849;SDS011;1940;51.052;13.678;2024-02-28T11:56:54;31.07;;;15.27;;
3849;SDS011;1940;51.052;13.678;2024-02-28T11:59:20;34.03;;;14.63;;
3849;SDS011;1940;51.052;13.678;2024-02-28T12:01:45;30.13;;;13.47;;
3849;SDS011;1940;51.052;13.678;2024-02-28T12:04:15;22.63;;;11.50;;
3849;SDS011;1940;51.052;13.678;2024-02-28T12:06:41;29.10;;;12.60;;
3849;SDS011;1940;51.052;13.678;2024-02-28T12:09:08;26.50;;;11.93;;
3849;SDS011;1940;51.052;13.678;2024-02-28T12:11:35;24.67;;;11.50;;
3849;SDS011;1940;51.052;13.678;2024-02-28T12:14:05;30.53;;;13.87;;
3849;SDS011;1940;51.052;13.678;2024-02-28T12:16:34;24.77;;;11.40;;
3849;SDS011;1940;51.052;13.678;2024-02-28T12:19:04;26.73;;;13.07;;
3849;SDS011;1940;51.052;13.678;2024-02-28T12:21:36;27.70;;;13.17;;
3849;SDS011;1940;51.052;13.678;2024-02-28T12:24:02;30.87;;;14.77;;
3849;SDS011;1940;51.052;13.678;2024-02-28T12:26:29;32.00;;;13.67;;
3849;SDS011;1940;51.052;13.678;2024-02-28T12:28:55;30.83;;;13.87;;
3849;SDS011;1940;51.052;13.678;2024-02-28T12:31:20;32.17;;;14.60;;
3849;SDS011;1940;51.052;13.678;2024-02-28T12:33:46;35.13;;;15.37;;
3849;SDS011;1940;51.052;13.678;2024-02-28T12:36:12;32.90;;;14.80;;
3849;SDS011;1940;51.052;13.678;2024-02-28T12:38:38;31.30;;;14.83;;
3849;SDS011;1940;51.052;13.678;2024-02-28T12:41:06;32.63;;;14.13;;
3849;SDS011;1940;51.052;13.678;2024-02-28T12:43:31;34.00;;;15.73;;
3849;SDS011;1940;51.052;13.678;2024-02-28T12:45:57;32.07;;;14.53;;
3849;SDS011;1940;51.052;13.678;2024-02-28T12:48:23;34.07;;;14.93;;
3849;SDS011;1940;51.052;13.678;2024-02-28T12:50:49;31.17;;;13.57;;
3849;SDS011;1940;51.052;13.678;2024-02-28T12:53:14;32.03;;;14.30;;
3849;SDS011;1940;51.052;13.678;2024-02-28T12:55:40;30.27;;;15.20;;
3849;SDS011;1940;51.052;13.678;2024-02-28T12:58:07;26.73;;;13.27;;
3849;SDS011;1940;51.052;13.678;2024-02-28T13:00:33;30.10;;;12.93;;
3849;SDS011;1940;51.052;13.678;2024-02-28T13:02:58;30.40;;;14.50;;
3849;SDS011;1940;51.052;13.678;2024-02-28T13:05:24;26.03;;;12.70;;
3849;SDS011;1940;51.052;13.678;2024-02-28T13:07:50;27.03;;;13.30;;
3849;SDS011;1940;51.052;13.678;2024-02-28T13:10:17;32.37;;;15.23;;
3849;SDS011;1940;51.052;13.678;2024-02-28T13:12:43;35.37;;;15.40;;
3849;SDS011;1940;51.052;13.678;2024-02-28T13:15:08;26.87;;;13.70;;
3849;SDS011;1940;51.052;13.678;2024-02-28T13:17:34;31.00;;;15.40;;
3849;SDS011;1940;51.052;13.678;2024-02-28T13:19:59;29.60;;;15.10;;
3849;SDS011;1940;51.052;13.678;2024-02-28T13:22:25;31.30;;;14.90;;
3849;SDS011;1940;51.052;13.678;2024-02-28T13:24:51;27.17;;;14.83;;
3849;SDS011;1940;51.052;13.678;2024-02-28T13:27:16;31.90;;;16.37;;
3849;SDS011;1940;51.052;13.678;2024-02-28T13:29:42;27.40;;;14.13;;
3849;SDS011;1940;51.052;13.678;2024-02-28T13:32:07;30.20;;;15.50;;
3849;SDS011;1940;51.052;13.678;2024-02-28T13:34:33;32.90;;;16.50;;
3849;SDS011;1940;51.052;13.678;2024-02-28T13:36:59;29.03;;;15.63;;
3849;SDS011;1940;51.052;13.678;2024-02-28T13:39:24;30.30;;;15.53;;
3849;SDS011;1940;51.052;13.678;2024-02-28T13:41:51;29.70;;;16.10;;
3849;SDS011;1940;51.052;13.678;2024-02-28T13:44:17;30.50;;;15.80;;
3849;SDS011;1940;51.052;13.678;2024-02-28T13:46:44;29.23;;;16.10;;
3849;SDS011;1940;51.052;13.678;2024-02-28T13:49:10;28.60;;;15.27;;
3849;SDS011;1940;51.052;13.678;2024-02-28T13:51:35;28.77;;;14.53;;
3849;SDS011;1940;51.052;13.678;2024-02-28T13:54:01;30.60;;;16.47;;
3849;SDS011;1940;51.052;13.678;2024-02-28T13:56:27;32.50;;;16.93;;
3849;SDS011;1940;51.052;13.678;2024-02-28T13:58:52;30.53;;;16.10;;
3849;SDS011;1940;51.052;13.678;2024-02-28T14:01:18;28.73;;;16.20;;
3849;SDS011;1940;51.052;13.678;2024-02-28T14:03:44;35.20;;;15.60;;
3849;SDS011;1940;51.052;13.678;2024-02-28T14:06:09;31.80;;;15.43;;
3849;SDS011;1940;51.052;13.678;2024-02-28T14:08:35;28.97;;;15.20;;
3849;SDS011;1940;51.052;13.678;2024-02-28T14:11:01;31.80;;;15.90;;
3849;SDS011;1940;51.052;13.678;2024-02-28T14:13:27;31.47;;;16.10;;
3849;SDS011;1940;51.052;13.678;2024-02-28T14:15:52;29.63;;;16.57;;
3849;SDS011;1940;51.052;13.678;2024-02-28T14:18:19;32.87;;;17.27;;
3849;SDS011;1940;51.052;13.678;2024-02-28T14:20:44;30.23;;;16.00;;
3849;SDS011;1940;51.052;13.678;2024-02-28T14:23:10;29.03;;;16.20;;
3849;SDS011;1940;51.052;13.678;2024-02-28T14:25:35;29.87;;;15.57;;
3849;SDS011;1940;51.052;13.678;2024-02-28T14:28:01;28.60;;;15.30;;